createdAt,value
2023-07-06T00:01:19.847Z,26.63
2023-07-06T00:03:48.509Z,27.08
2023-07-06T00:06:17.555Z,29.83
2023-07-06T00:08:47.244Z,32.95
2023-07-06T00:11:16.514Z,30.52
2023-07-06T00:13:46.452Z,31.98
2023-07-06T00:16:15.337Z,32.25
2023-07-06T00:18:43.636Z,29.00
2023-07-06T00:21:11.873Z,26.08
2023-07-06T00:23:44.888Z,27.70
2023-07-06T00:26:17.679Z,30.15
2023-07-06T00:28:50.006Z,27.23
2023-07-06T00:31:33.040Z,27.88
2023-07-06T00:34:05.378Z,24.33
2023-07-06T00:36:36.346Z,30.13
2023-07-06T00:39:05.679Z,41.72
2023-07-06T00:41:36.496Z,25.30
2023-07-06T00:44:05.713Z,34.42
2023-07-06T00:46:42.085Z,35.10
2023-07-06T00:49:17.382Z,41.97
2023-07-06T00:51:46.552Z,29.05
2023-07-06T00:54:19.965Z,31.13
2023-07-06T00:56:53.277Z,31.80
2023-07-06T00:59:28.083Z,28.50
2023-07-06T01:01:56.721Z,29.73
2023-07-06T01:06:55.854Z,33.58
2023-07-06T01:09:26.956Z,41.63
2023-07-06T01:11:58.123Z,44.58
2023-07-06T01:14:28.120Z,41.53
2023-07-06T01:17:06.753Z,44.10
2023-07-06T01:20:15.703Z,39.20
2023-07-06T01:23:20.060Z,40.42
2023-07-06T01:26:15.477Z,44.47
2023-07-06T01:29:32.083Z,48.20
2023-07-06T01:32:05.610Z,55.10
2023-07-06T01:34:43.133Z,53.33
2023-07-06T01:37:16.843Z,52.92
2023-07-06T01:39:45.541Z,46.83
2023-07-06T01:42:28.335Z,44.40
2023-07-06T01:45:01.748Z,39.55
2023-07-06T01:47:33.642Z,36.67
2023-07-06T01:50:03.910Z,36.47
2023-07-06T01:53:03.898Z,38.45
2023-07-06T01:55:37.891Z,46.78
2023-07-06T01:58:18.857Z,36.95
2023-07-06T02:00:54.399Z,34.53
2023-07-06T02:03:26.149Z,46.63
2023-07-06T02:05:55.508Z,35.75
2023-07-06T02:08:25.058Z,33.95
2023-07-06T02:10:53.993Z,45.35
2023-07-06T02:13:23.414Z,48.55
2023-07-06T02:15:53.048Z,45.05
2023-07-06T02:20:50.521Z,38.30
2023-07-06T02:23:18.604Z,52.50
2023-07-06T02:25:47.315Z,50.03
2023-07-06T02:28:16.154Z,45.65
2023-07-06T02:30:45.869Z,56.05
2023-07-06T02:33:14.055Z,43.42
2023-07-06T02:35:42.745Z,47.13
2023-07-06T02:40:42.166Z,46.50
2023-07-06T02:43:10.680Z,48.03
2023-07-06T02:45:40.124Z,46.38
2023-07-06T02:50:37.889Z,39.72
2023-07-06T02:53:06.664Z,59.53
2023-07-06T02:55:36.296Z,55.72
2023-07-06T02:58:05.059Z,79.85
2023-07-06T03:00:33.614Z,57.38
2023-07-06T03:05:34.437Z,63.65
2023-07-06T03:08:02.781Z,59.28
2023-07-06T03:10:31.364Z,54.47
2023-07-06T03:13:01.087Z,51.47
2023-07-06T03:15:32.948Z,61.10
2023-07-06T03:18:01.501Z,51.85
2023-07-06T03:22:58.111Z,46.15
2023-07-06T03:25:27.643Z,44.45
2023-07-06T03:27:56.687Z,43.80
2023-07-06T03:30:30.339Z,46.45
2023-07-06T03:33:00.436Z,42.83
2023-07-06T03:35:29.783Z,47.53
2023-07-06T03:38:00.080Z,38.72
2023-07-06T03:40:30.619Z,38.58
2023-07-06T03:42:59.587Z,32.80
2023-07-06T03:45:31.418Z,35.60
2023-07-06T03:48:01.734Z,36.20
2023-07-06T03:50:30.099Z,33.63
2023-07-06T03:52:59.808Z,31.92
2023-07-06T03:55:29.689Z,30.23
2023-07-06T03:58:05.335Z,27.92
2023-07-06T04:00:37.504Z,31.33
2023-07-06T04:03:07.933Z,29.25
2023-07-06T04:05:40.126Z,30.80
2023-07-06T04:08:13.525Z,35.08
2023-07-06T04:10:42.884Z,26.58
2023-07-06T04:13:12.067Z,28.10
2023-07-06T04:15:45.647Z,26.88
2023-07-06T04:18:16.341Z,25.13
2023-07-06T04:20:45.596Z,40.78
2023-07-06T04:23:13.950Z,27.60
2023-07-06T04:25:42.645Z,30.38
2023-07-06T04:28:13.688Z,27.23
2023-07-06T04:30:45.933Z,31.00
2023-07-06T04:33:18.283Z,26.92
2023-07-06T04:35:51.642Z,23.08
2023-07-06T04:38:20.261Z,23.70
2023-07-06T04:40:48.564Z,28.15
2023-07-06T04:43:16.662Z,22.38
2023-07-06T04:45:47.949Z,23.02
2023-07-06T04:48:17.907Z,19.85
2023-07-06T04:50:47.431Z,20.88
2023-07-06T04:53:17.699Z,22.52
2023-07-06T04:55:46.698Z,22.58
2023-07-06T04:58:15.782Z,22.60
2023-07-06T05:00:46.943Z,20.08
2023-07-06T05:03:16.096Z,18.58
2023-07-06T05:05:47.324Z,16.17
2023-07-06T05:08:18.424Z,15.43
2023-07-06T05:10:50.037Z,17.58
2023-07-06T05:13:18.976Z,20.73
2023-07-06T05:15:50.166Z,16.67
2023-07-06T05:18:20.995Z,17.63
2023-07-06T05:20:51.527Z,15.75
2023-07-06T05:23:20.980Z,13.18
2023-07-06T05:25:53.166Z,13.30
2023-07-06T05:28:22.609Z,17.25
2023-07-06T05:30:53.136Z,14.20
2023-07-06T05:33:21.783Z,12.98
2023-07-06T05:35:52.791Z,15.30
2023-07-06T05:38:21.898Z,13.55
2023-07-06T05:40:50.182Z,15.57
2023-07-06T05:43:20.739Z,14.68
2023-07-06T05:45:50.960Z,12.07
2023-07-06T05:48:19.684Z,13.48
2023-07-06T05:50:48.693Z,14.18
2023-07-06T05:53:17.403Z,17.48
2023-07-06T05:55:46.289Z,15.25
2023-07-06T05:58:17.669Z,12.30
2023-07-06T06:00:46.518Z,18.83
2023-07-06T06:03:17.450Z,16.23
2023-07-06T06:05:47.482Z,14.07
2023-07-06T06:08:17.557Z,15.30
2023-07-06T06:10:46.224Z,12.38
2023-07-06T06:13:15.492Z,13.85
2023-07-06T06:15:45.097Z,14.00
2023-07-06T06:18:15.055Z,11.07
2023-07-06T06:20:44.056Z,12.13
2023-07-06T06:23:14.407Z,16.42
2023-07-06T06:25:42.953Z,14.52
2023-07-06T06:28:11.604Z,10.68
2023-07-06T06:30:41.485Z,11.50
2023-07-06T06:33:10.909Z,13.05
2023-07-06T06:35:40.547Z,10.52
2023-07-06T06:38:09.065Z,9.27
2023-07-06T06:40:38.331Z,10.68
2023-07-06T06:43:06.950Z,10.35
2023-07-06T06:45:36.213Z,22.95
2023-07-06T06:48:11.923Z,8.90
2023-07-06T06:50:42.108Z,8.70
2023-07-06T06:53:12.418Z,10.15
2023-07-06T06:55:41.009Z,7.90
2023-07-06T06:58:09.567Z,10.90
2023-07-06T07:00:40.900Z,10.57
2023-07-06T07:03:11.421Z,8.25
2023-07-06T07:05:41.518Z,8.35
2023-07-06T07:08:09.886Z,9.02
2023-07-06T07:10:38.058Z,10.18
2023-07-06T07:13:06.655Z,6.40
2023-07-06T07:15:35.543Z,8.55
2023-07-06T07:18:04.673Z,6.47
2023-07-06T07:20:33.131Z,6.70
2023-07-06T07:23:03.342Z,12.60
2023-07-06T07:25:32.265Z,10.25
2023-07-06T07:28:00.492Z,5.65
2023-07-06T07:30:29.222Z,5.07
2023-07-06T07:32:58.957Z,5.32
2023-07-06T07:35:28.473Z,8.68
2023-07-06T07:37:57.262Z,8.70
2023-07-06T07:40:27.180Z,5.57
2023-07-06T07:42:56.667Z,7.50
2023-07-06T07:45:25.368Z,3.92
2023-07-06T07:47:54.084Z,5.47
2023-07-06T07:50:22.709Z,6.63
2023-07-06T07:52:51.322Z,7.10
2023-07-06T07:55:21.408Z,7.82
2023-07-06T07:57:51.408Z,4.53
2023-07-06T08:00:21.764Z,4.82
2023-07-06T08:02:54.397Z,6.32
2023-07-06T08:05:22.660Z,7.68
2023-07-06T08:07:51.902Z,6.22
2023-07-06T08:10:20.047Z,5.57
2023-07-06T08:12:50.410Z,3.00
2023-07-06T08:15:19.630Z,4.18
2023-07-06T08:17:48.473Z,5.72
2023-07-06T08:20:28.493Z,5.22
2023-07-06T08:23:12.761Z,4.57
2023-07-06T08:25:42.844Z,4.97
2023-07-06T08:28:14.632Z,5.65
2023-07-06T08:30:43.955Z,6.95
2023-07-06T08:33:13.278Z,6.63
2023-07-06T08:35:45.833Z,5.43
2023-07-06T08:38:15.811Z,6.32
2023-07-06T08:40:44.961Z,4.13
2023-07-06T08:43:19.685Z,5.13
2023-07-06T08:45:53.898Z,6.88
2023-07-06T08:48:27.788Z,6.85
2023-07-06T08:50:59.975Z,6.25
2023-07-06T08:53:33.765Z,5.60
2023-07-06T08:56:10.036Z,6.15
2023-07-06T08:58:42.797Z,4.65
2023-07-06T09:01:14.600Z,5.78
2023-07-06T09:03:47.569Z,4.10
2023-07-06T09:06:20.247Z,5.18
2023-07-06T09:08:49.876Z,3.92
2023-07-06T09:11:22.262Z,4.65
2023-07-06T09:13:56.013Z,4.57
2023-07-06T09:16:26.512Z,6.85
2023-07-06T09:18:55.859Z,2.90
2023-07-06T09:21:26.642Z,4.88
2023-07-06T09:23:59.036Z,3.78
2023-07-06T09:26:35.037Z,4.45
2023-07-06T09:29:26.420Z,5.72
2023-07-06T09:32:15.601Z,5.57
2023-07-06T09:34:46.809Z,3.42
2023-07-06T09:37:16.136Z,5.05
2023-07-06T09:39:57.719Z,6.55
2023-07-06T09:42:27.117Z,4.05
2023-07-06T09:44:57.179Z,4.63
2023-07-06T09:47:25.957Z,3.78
2023-07-06T09:49:59.839Z,5.93
2023-07-06T09:52:28.449Z,5.90
2023-07-06T09:55:02.770Z,9.73
2023-07-06T09:57:37.787Z,5.65
2023-07-06T10:00:19.200Z,3.47
2023-07-06T10:03:15.199Z,4.55
2023-07-06T10:05:57.814Z,3.65
2023-07-06T10:08:33.535Z,5.65
2023-07-06T10:11:13.692Z,5.38
2023-07-06T10:13:53.413Z,4.45
2023-07-06T10:16:33.482Z,2.92
2023-07-06T10:19:15.909Z,3.88
2023-07-06T10:21:50.672Z,4.10
2023-07-06T10:24:32.933Z,5.25
2023-07-06T10:27:06.128Z,3.90
2023-07-06T10:29:42.514Z,5.53
2023-07-06T10:32:16.428Z,4.47
2023-07-06T10:34:54.863Z,3.42
2023-07-06T10:37:25.794Z,4.50
2023-07-06T10:40:21.252Z,5.28
2023-07-06T10:42:53.849Z,4.32
2023-07-06T10:45:43.379Z,5.15
2023-07-06T10:48:28.264Z,5.78
2023-07-06T10:51:23.917Z,3.55
2023-07-06T10:54:12.363Z,4.22
2023-07-06T10:56:47.168Z,3.88
2023-07-06T10:59:19.741Z,3.03
2023-07-06T11:01:50.091Z,3.97
2023-07-06T11:04:54.091Z,4.47
2023-07-06T11:07:45.239Z,5.75
2023-07-06T11:10:33.492Z,4.57
2023-07-06T11:13:20.560Z,2.97
2023-07-06T11:16:05.211Z,4.95
2023-07-06T11:18:40.300Z,4.50
2023-07-06T11:21:32.000Z,5.90
2023-07-06T11:24:07.873Z,3.97
2023-07-06T11:26:45.415Z,3.30
2023-07-06T11:29:13.793Z,3.92
2023-07-06T11:32:10.583Z,4.40
2023-07-06T11:34:51.376Z,4.22
2023-07-06T11:37:39.186Z,5.57
2023-07-06T11:40:34.916Z,3.40
2023-07-06T11:43:23.740Z,3.65
2023-07-06T11:46:02.474Z,4.30
2023-07-06T11:48:40.034Z,3.42
2023-07-06T11:51:08.907Z,4.05
2023-07-06T11:53:55.676Z,3.00
2023-07-06T11:59:16.696Z,3.88
2023-07-06T12:01:47.371Z,3.22
2023-07-06T12:04:21.336Z,3.30
2023-07-06T12:06:51.735Z,2.55
2023-07-06T12:09:25.827Z,2.28
2023-07-06T12:12:03.833Z,11.93
2023-07-06T12:14:35.815Z,3.95
2023-07-06T12:17:07.269Z,2.97
2023-07-06T12:19:39.232Z,2.20
2023-07-06T12:22:13.544Z,3.63
2023-07-06T12:24:43.738Z,4.10
2023-07-06T12:27:16.133Z,3.58
2023-07-06T12:29:46.745Z,2.83
2023-07-06T12:32:21.300Z,2.20
2023-07-06T12:34:53.382Z,4.38
2023-07-06T12:37:24.773Z,3.15
2023-07-06T12:39:56.110Z,4.15
2023-07-06T12:42:24.653Z,2.50
2023-07-06T12:44:54.168Z,2.65
2023-07-06T12:47:29.745Z,3.42
2023-07-06T12:50:05.892Z,3.08
2023-07-06T12:52:36.062Z,3.17
2023-07-06T12:55:07.391Z,5.25
2023-07-06T12:57:39.341Z,3.58
2023-07-06T13:00:18.326Z,5.25
2023-07-06T13:02:54.534Z,2.92
2023-07-06T13:05:27.504Z,5.03
2023-07-06T13:07:56.934Z,3.55
2023-07-06T13:10:30.878Z,5.18
2023-07-06T13:13:01.902Z,4.95
2023-07-06T13:15:40.718Z,3.67
2023-07-06T13:18:17.697Z,4.85
2023-07-06T13:20:54.990Z,3.45
2023-07-06T13:23:23.329Z,4.07
2023-07-06T13:25:54.283Z,2.85
2023-07-06T13:28:23.412Z,3.63
2023-07-06T13:30:54.219Z,33.05
2023-07-06T13:33:22.430Z,7.60
2023-07-06T13:35:50.897Z,5.68
2023-07-06T13:38:19.140Z,14.95
2023-07-06T13:40:50.165Z,15.23
2023-07-06T13:43:22.354Z,16.63
2023-07-06T13:45:51.102Z,3.67
2023-07-06T13:48:20.369Z,3.03
2023-07-06T13:50:49.354Z,5.70
2023-07-06T13:53:18.582Z,4.38
2023-07-06T13:55:54.210Z,3.03
2023-07-06T13:58:26.815Z,2.60
2023-07-06T14:00:55.295Z,4.32
2023-07-06T14:03:27.012Z,4.20
2023-07-06T14:05:56.336Z,16.05
2023-07-06T14:08:26.527Z,3.97
2023-07-06T14:10:55.665Z,2.88
2023-07-06T14:13:25.733Z,2.42
2023-07-06T14:15:54.348Z,4.18
2023-07-06T14:18:24.314Z,5.55
2023-07-06T14:20:53.684Z,5.13
2023-07-06T14:23:27.231Z,3.85
2023-07-06T14:25:56.935Z,3.58
2023-07-06T14:28:28.201Z,3.53
2023-07-06T14:30:57.765Z,3.63
2023-07-06T14:33:28.218Z,4.35
2023-07-06T14:35:56.786Z,4.13
2023-07-06T14:38:25.828Z,4.72
2023-07-06T14:40:54.438Z,5.43
2023-07-06T14:43:25.193Z,4.00
2023-07-06T14:45:54.873Z,4.35
2023-07-06T14:48:23.862Z,6.03
2023-07-06T14:50:52.892Z,5.32
2023-07-06T14:53:21.281Z,3.92
2023-07-06T14:55:49.770Z,5.00
2023-07-06T14:58:18.000Z,4.07
2023-07-06T15:00:46.498Z,4.60
2023-07-06T15:03:16.258Z,3.88
2023-07-06T15:05:44.529Z,5.97
2023-07-06T15:08:13.216Z,5.78
2023-07-06T15:10:41.325Z,3.63
2023-07-06T15:13:09.773Z,3.35
2023-07-06T15:15:41.078Z,4.63
2023-07-06T15:18:10.880Z,3.92
2023-07-06T15:20:40.592Z,4.75
2023-07-06T15:23:09.310Z,2.55
2023-07-06T15:25:37.894Z,4.93
2023-07-06T15:28:07.362Z,4.10
2023-07-06T15:30:36.493Z,6.10
2023-07-06T15:33:04.842Z,5.30
2023-07-06T15:35:33.381Z,3.47
2023-07-06T15:38:05.338Z,4.13
2023-07-06T15:40:33.866Z,4.18
2023-07-06T15:43:02.399Z,3.88
2023-07-06T15:45:30.853Z,2.75
2023-07-06T15:47:59.544Z,3.90
2023-07-06T15:50:28.378Z,2.75
2023-07-06T15:52:57.107Z,3.20
2023-07-06T15:55:26.751Z,3.30
2023-07-06T15:57:54.915Z,3.10
2023-07-06T16:00:23.652Z,2.83
2023-07-06T16:02:52.072Z,3.53
2023-07-06T16:05:20.580Z,3.35
2023-07-06T16:07:48.983Z,2.83
2023-07-06T16:10:17.597Z,3.92
2023-07-06T16:12:47.364Z,4.10
2023-07-06T16:15:16.130Z,3.90
2023-07-06T16:17:44.681Z,4.43
2023-07-06T16:20:14.500Z,3.47
2023-07-06T16:22:43.305Z,4.25
2023-07-06T16:25:11.587Z,3.08
2023-07-06T16:27:40.133Z,6.65
2023-07-06T16:30:10.919Z,4.75
2023-07-06T16:32:40.891Z,2.90
2023-07-06T16:35:09.631Z,2.72
2023-07-06T16:37:37.896Z,4.43
2023-07-06T16:40:08.397Z,3.35
2023-07-06T16:42:36.659Z,4.35
2023-07-06T16:45:05.775Z,2.28
2023-07-06T16:47:35.370Z,3.00
2023-07-06T16:50:03.687Z,5.28
2023-07-06T16:52:32.029Z,4.25
2023-07-06T16:55:00.700Z,5.20
2023-07-06T16:57:29.071Z,4.63
2023-07-06T16:59:58.409Z,3.10
2023-07-06T17:02:27.010Z,4.93
2023-07-06T17:04:56.873Z,4.32
2023-07-06T17:07:25.213Z,4.68
2023-07-06T17:09:53.489Z,3.58
2023-07-06T17:12:21.842Z,4.95
2023-07-06T17:14:50.360Z,3.95
2023-07-06T17:17:18.560Z,3.03
2023-07-06T17:19:47.053Z,6.07
2023-07-06T17:22:16.579Z,5.88
2023-07-06T17:24:45.045Z,6.22
2023-07-06T17:27:13.340Z,4.97
2023-07-06T17:29:41.736Z,6.28
2023-07-06T17:32:10.572Z,7.78
2023-07-06T17:34:41.475Z,8.63
2023-07-06T17:37:10.067Z,11.43
2023-07-06T17:39:42.706Z,14.55
2023-07-06T17:42:11.268Z,12.13
2023-07-06T17:44:39.821Z,10.65
2023-07-06T17:47:10.004Z,15.77
2023-07-06T17:49:39.455Z,7.20
2023-07-06T17:52:08.656Z,11.45
2023-07-06T17:54:38.785Z,11.38
2023-07-06T17:57:07.609Z,10.70
2023-07-06T17:59:35.827Z,12.43
2023-07-06T18:02:04.449Z,12.15
2023-07-06T18:04:32.582Z,6.93
2023-07-06T18:07:00.854Z,14.25
2023-07-06T18:09:30.270Z,13.40
2023-07-06T18:12:00.188Z,16.95
2023-07-06T18:14:28.392Z,13.52
2023-07-06T18:16:56.541Z,7.40
2023-07-06T18:19:25.263Z,4.88
2023-07-06T18:21:53.877Z,4.47
2023-07-06T18:24:22.551Z,5.57
2023-07-06T18:26:50.878Z,5.30
2023-07-06T18:29:20.626Z,4.28
2023-07-06T18:31:48.873Z,5.15
2023-07-06T18:34:17.818Z,4.18
2023-07-06T18:36:46.125Z,3.97
2023-07-06T18:39:14.808Z,3.17
2023-07-06T18:41:43.440Z,2.75
2023-07-06T18:44:11.792Z,2.92
2023-07-06T18:46:41.450Z,4.05
2023-07-06T18:49:10.092Z,5.47
2023-07-06T18:51:38.249Z,2.17
2023-07-06T18:54:07.106Z,3.25
2023-07-06T18:56:35.675Z,4.35
2023-07-06T18:59:04.234Z,3.45
2023-07-06T19:01:32.894Z,2.78
2023-07-06T19:04:12.260Z,7.57
2023-07-06T19:06:42.492Z,5.35
2023-07-06T19:09:11.334Z,4.72
2023-07-06T19:11:39.725Z,4.20
2023-07-06T19:14:07.886Z,5.53
2023-07-06T19:19:04.469Z,5.07
2023-07-06T19:21:34.049Z,3.85
2023-07-06T19:24:02.714Z,4.88
2023-07-06T19:26:31.192Z,7.35
2023-07-06T19:28:59.630Z,4.30
2023-07-06T19:31:27.923Z,5.85
2023-07-06T19:33:56.042Z,4.35
2023-07-06T19:36:24.353Z,4.90
2023-07-06T19:38:54.906Z,3.22
2023-07-06T19:41:23.400Z,5.85
2023-07-06T19:43:52.632Z,4.03
2023-07-06T19:46:22.333Z,4.50
2023-07-06T19:48:51.329Z,5.18
2023-07-06T19:51:21.656Z,4.10
2023-07-06T19:53:52.028Z,6.43
2023-07-06T19:56:24.538Z,5.22
2023-07-06T19:58:55.507Z,3.88
2023-07-06T20:01:24.398Z,3.83
2023-07-06T20:03:52.982Z,4.25
2023-07-06T20:06:21.289Z,4.32
2023-07-06T20:11:17.342Z,5.78
2023-07-06T20:13:47.392Z,4.78
2023-07-06T20:16:15.934Z,5.65
2023-07-06T20:18:44.146Z,5.93
2023-07-06T20:21:12.372Z,6.75
2023-07-06T20:23:40.958Z,4.28
2023-07-06T20:26:10.325Z,5.05
2023-07-06T20:28:38.674Z,6.18
2023-07-06T20:31:09.378Z,4.85
2023-07-06T20:33:37.917Z,5.50
2023-07-06T20:38:36.039Z,4.63
2023-07-06T20:41:05.233Z,7.32
2023-07-06T20:43:33.400Z,8.52
2023-07-06T20:46:02.035Z,4.75
2023-07-06T20:48:31.691Z,7.38
2023-07-06T20:51:00.438Z,4.57
2023-07-06T20:53:29.236Z,5.40
2023-07-06T20:55:57.826Z,5.95
2023-07-06T20:58:27.129Z,4.35
2023-07-06T21:00:58.382Z,4.90
2023-07-06T21:03:29.047Z,7.28
2023-07-06T21:05:58.805Z,6.93
2023-07-06T21:08:27.466Z,4.10
2023-07-06T21:10:55.731Z,7.32
2023-07-06T21:13:24.384Z,6.40
2023-07-06T21:15:54.400Z,4.45
2023-07-06T21:18:24.523Z,5.78
2023-07-06T21:20:52.744Z,6.38
2023-07-06T21:23:22.179Z,6.40
2023-07-06T21:25:50.664Z,5.40
2023-07-06T21:28:18.979Z,7.22
2023-07-06T21:30:47.601Z,6.97
2023-07-06T21:33:15.670Z,7.57
2023-07-06T21:35:43.806Z,5.57
2023-07-06T21:38:12.366Z,7.70
2023-07-06T21:40:41.926Z,6.43
2023-07-06T21:43:10.158Z,4.47
2023-07-06T21:45:38.993Z,6.47
2023-07-06T21:48:07.615Z,7.03
2023-07-06T21:50:35.695Z,7.10
2023-07-06T21:53:04.032Z,7.07
2023-07-06T21:55:33.175Z,5.10
2023-07-06T21:58:03.356Z,5.18
2023-07-06T22:00:31.697Z,8.18
2023-07-06T22:02:59.995Z,6.22
2023-07-06T22:05:28.523Z,5.63
2023-07-06T22:10:24.761Z,5.13
2023-07-06T22:12:52.851Z,5.15
2023-07-06T22:15:34.073Z,8.98
2023-07-06T22:18:03.936Z,7.55
2023-07-06T22:20:33.631Z,5.72
2023-07-06T22:23:01.874Z,5.72
2023-07-06T22:25:29.969Z,8.57
2023-07-06T22:27:58.472Z,7.32
2023-07-06T22:32:56.404Z,6.25
2023-07-06T22:35:24.886Z,6.03
2023-07-06T22:40:21.543Z,6.57
2023-07-06T22:47:47.134Z,7.00
2023-07-06T22:50:18.984Z,5.70
2023-07-06T22:52:48.126Z,5.10
2023-07-06T22:55:16.871Z,5.40
2023-07-06T22:57:44.937Z,4.47
2023-07-06T23:00:14.633Z,6.60
2023-07-06T23:02:42.722Z,6.15
2023-07-06T23:05:12.492Z,6.85
2023-07-06T23:07:41.399Z,9.20
2023-07-06T23:10:10.653Z,8.10
2023-07-06T23:12:40.491Z,9.70
2023-07-06T23:15:13.206Z,7.97
2023-07-06T23:17:42.474Z,8.98
2023-07-06T23:20:13.686Z,6.32
2023-07-06T23:22:42.001Z,9.50
2023-07-06T23:25:13.622Z,6.18
2023-07-06T23:27:42.620Z,6.10
2023-07-06T23:30:15.607Z,5.07
2023-07-06T23:32:49.321Z,5.13
2023-07-06T23:35:21.196Z,6.80
2023-07-06T23:37:52.316Z,6.18
2023-07-06T23:40:23.009Z,4.75
2023-07-06T23:42:51.567Z,8.18
2023-07-06T23:47:47.860Z,7.07
2023-07-06T23:50:16.158Z,7.32
2023-07-06T23:52:45.922Z,6.57
2023-07-06T23:55:14.680Z,5.63
2023-07-06T23:57:43.067Z,6.68
